Time;durP1;ratioP1;P1;durP2;ratioP2;P2;SDS_P1;SDS_P2;PMS_P1;PMS_P2;Temp;Humidity;BMP_temperature;BMP_pressure;BME280_temperature;BME280_humidity;BME280_pressure;Samples;Min_cycle;Max_cycle;Signal;HPM_P1;HPM_P2
2023/07/29 00:00:39;;;;;;;12.77;3.10;;;;;;;17.29;100.00;96918.41;4910135;29;20023;-73
2023/07/29 00:03:05;;;;;;;11.23;2.70;;;;;;;17.36;100.00;93389.25;4936899;29;20046;-72
2023/07/29 00:05:30;;;;;;;10.17;3.13;;;;;;;17.45;100.00;92341.84;4915549;29;20054;-74
2023/07/29 00:07:56;;;;;;;13.20;3.00;;;;;;;17.49;100.00;93056.47;4927567;29;20075;-73
2023/07/29 00:10:21;;;;;;;7.70;3.00;;;;;;;17.47;100.00;94114.28;4922668;29;20364;-73
2023/07/29 00:12:53;;;;;;;7.60;3.00;;;;;;;17.40;100.00;95165.09;4920272;29;20435;-78
2023/07/29 00:15:18;;;;;;;6.68;2.90;;;;;;;17.40;100.00;94457.19;4921025;29;20555;-72
2023/07/29 00:17:44;;;;;;;8.03;3.77;;;;;;;17.34;100.00;93386.13;4930251;29;20027;-72
2023/07/29 00:20:10;;;;;;;6.83;3.00;;;;;;;17.39;100.00;91271.50;4913267;29;20035;-72
2023/07/29 00:22:35;;;;;;;18.57;3.80;;;;;;;17.29;100.00;92670.81;4906071;29;20254;-72
2023/07/29 00:25:02;;;;;;;9.83;3.47;;;;;;;17.23;100.00;93368.94;4926729;29;20825;-72
2023/07/29 00:27:28;;;;;;;13.98;3.47;;;;;;;17.25;100.00;90896.56;4929651;29;20054;-72
2023/07/29 00:29:53;;;;;;;8.87;3.97;;;;;;;17.35;100.00;87024.81;4911431;29;20474;-72
2023/07/29 00:32:18;;;;;;;11.67;3.93;;;;;;;17.35;100.00;84905.81;4924133;29;20483;-73
2023/07/29 00:34:44;;;;;;;7.53;4.33;;;;;;;17.40;100.00;84559.88;4930909;29;20067;-72
2023/07/29 00:37:10;;;;;;;9.23;4.00;;;;;;;17.52;100.00;82810.88;4903918;29;20040;-72
2023/07/29 00:39:37;;;;;;;7.57;4.15;;;;;;;17.49;100.00;84218.81;4928225;29;20035;-72
2023/07/29 00:42:02;;;;;;;11.85;5.00;;;;;;;17.59;100.00;84939.25;4930272;29;20424;-73
2023/07/29 00:44:28;;;;;;;9.00;4.37;;;;;;;17.61;100.00;88475.88;4927784;29;20078;-72
2023/07/29 00:46:54;;;;;;;11.93;4.17;;;;;;;17.66;100.00;92728.97;4911613;29;20368;-72
2023/07/29 00:49:20;;;;;;;9.48;3.83;;;;;;;17.69;100.00;96628.97;4914993;29;20055;-72
2023/07/29 00:51:46;;;;;;;7.30;4.45;;;;;;;17.73;100.00;102307.59;4926397;29;20098;-70
2023/07/29 00:54:13;;;;;;;15.80;5.03;;;;;;;17.77;100.00;112974.34;4923900;29;20043;-73
2023/07/29 00:56:38;;;;;;;8.75;3.40;;;;;;;17.76;100.00;122945.94;4931942;29;20059;-70
2023/07/29 00:59:04;;;;;;;16.77;3.90;;;;;;;17.82;100.00;129739.44;4923356;29;20039;-70
2023/07/29 01:01:30;;;;;;;7.30;2.90;;;;;;;17.81;100.00;140826.81;4924648;29;20035;-70
2023/07/29 01:03:56;;;;;;;5.88;3.88;;;;;;;17.79;100.00;152889.63;4926546;29;20476;-71
2023/07/29 01:06:39;;;;;;;5.03;2.87;;;;;;;17.78;100.00;155888.34;4913951;29;20118;-70
2023/07/29 01:09:12;;;;;;;4.07;2.60;;;;;;;17.78;100.00;155889.59;4927999;29;20106;-71
2023/07/29 01:11:40;;;;;;;5.13;2.92;;;;;;;17.78;100.00;155888.34;4930702;29;20440;-70
2023/07/29 01:14:25;;;;;;;7.85;2.65;;;;;;;17.80;100.00;155893.53;4928158;29;20036;-72
2023/07/29 01:16:55;;;;;;;7.22;2.70;;;;;;;17.78;100.00;155888.34;4911250;29;20054;-72
2023/07/29 01:19:42;;;;;;;4.18;2.53;;;;;;;17.80;100.00;155894.84;4927974;29;20055;-71
2023/07/29 01:22:10;;;;;;;4.43;2.35;;;;;;;17.83;100.00;155901.34;4926258;29;20044;-71
2023/07/29 01:24:35;;;;;;;2.65;2.35;;;;;;;17.81;100.00;155897.44;4914911;29;20068;-70
2023/07/29 01:27:01;;;;;;;5.73;2.57;;;;;;;17.84;100.00;155905.28;4908291;29;20059;-70
2023/07/29 01:29:27;;;;;;;3.30;1.90;;;;;;;17.82;100.00;155898.75;4911978;29;20432;-70
2023/07/29 01:31:56;;;;;;;3.88;2.50;;;;;;;17.78;100.00;155889.59;4923458;29;20491;-72
2023/07/29 01:34:48;;;;;;;3.67;2.25;;;;;;;17.74;100.00;155879.22;4911818;29;20111;-71
2023/07/29 01:37:19;;;;;;;6.05;2.88;;;;;;;17.64;100.00;155851.88;4912848;29;20032;-70
2023/07/29 01:39:46;;;;;;;4.57;2.47;;;;;;;17.58;100.00;155836.25;4922702;29;20032;-69
2023/07/29 01:42:11;;;;;;;5.18;2.15;;;;;;;17.54;100.00;155825.81;4909444;29;20534;-70
2023/07/29 01:44:37;;;;;;;3.37;2.37;;;;;;;17.53;100.00;155823.22;4913777;29;20020;-70
2023/07/29 01:47:02;;;;;;;3.20;2.57;;;;;;;17.49;100.00;155812.81;4916114;29;20274;-70
2023/07/29 01:49:28;;;;;;;4.50;2.90;;;;;;;17.40;100.00;155790.69;4908996;29;20096;-70
2023/07/29 01:51:53;;;;;;;4.07;2.70;;;;;;;17.33;100.00;155772.44;4915787;29;20036;-69
2023/07/29 01:54:19;;;;;;;2.53;2.33;;;;;;;17.28;100.00;155758.13;4923711;29;20032;-69
2023/07/29 01:56:44;;;;;;;5.30;2.43;;;;;;;17.29;100.00;155760.72;4921696;29;20032;-70
2023/07/29 01:59:09;;;;;;;7.60;2.50;;;;;;;17.23;100.00;155745.13;4910870;29;20031;-70
2023/07/29 02:01:35;;;;;;;7.27;2.43;;;;;;;17.20;100.00;155737.28;4913747;29;20020;-69
2023/07/29 02:04:01;;;;;;;3.63;2.33;;;;;;;17.18;100.00;155732.09;4916020;29;20036;-70
2023/07/29 02:06:27;;;;;;;3.67;2.30;;;;;;;17.12;100.00;155717.75;4912438;29;20485;-70
2023/07/29 02:08:52;;;;;;;7.68;2.60;;;;;;;17.14;100.00;155722.94;4907546;29;20044;-70
2023/07/29 02:11:20;;;;;;;4.50;2.80;;;;;;;17.11;100.00;155713.84;4919415;29;20040;-71
2023/07/29 02:13:47;;;;;;;10.07;2.95;;;;;;;17.09;100.00;155708.66;4904699;29;20504;-72
2023/07/29 02:16:12;;;;;;;6.75;2.47;;;;;;;17.01;100.00;155689.13;4925788;29;20024;-70
2023/07/29 02:18:39;;;;;;;3.43;2.60;;;;;;;17.01;100.00;155689.13;4911628;29;20442;-71
2023/07/29 02:21:04;;;;;;;;;;;;;;;17.01;100.00;155687.81;4910303;29;20060;-72
2023/07/29 02:23:30;;;;;;;3.42;2.33;;;;;;;17.00;100.00;155685.22;4934756;29;20412;-71
2023/07/29 02:25:55;;;;;;;2.80;2.13;;;;;;;16.99;100.00;155682.63;4931342;29;20039;-71
2023/07/29 02:28:20;;;;;;;3.17;2.30;;;;;;;16.95;100.00;155672.22;4930734;29;20050;-73
2023/07/29 02:30:46;;;;;;;3.13;2.30;;;;;;;16.96;100.00;155676.13;4929707;29;20118;-71
2023/07/29 02:33:11;;;;;;;5.47;2.83;;;;;;;16.95;100.00;155672.22;4938305;29;20050;-71
2023/07/29 02:35:36;;;;;;;4.37;2.80;;;;;;;16.89;100.00;155656.59;4921620;29;20511;-71
2023/07/29 02:38:02;;;;;;;4.13;3.20;;;;;;;16.88;100.00;155654.00;4932945;29;20493;-71
2023/07/29 02:40:29;;;;;;;5.00;2.87;;;;;;;16.88;100.00;155655.34;4911091;29;20040;-70
2023/07/29 02:42:54;;;;;;;2.85;2.55;;;;;;;16.88;100.00;155654.00;4929968;29;20411;-71
2023/07/29 02:45:19;;;;;;;6.97;2.60;;;;;;;16.91;100.00;155661.84;4930634;29;20038;-71
2023/07/29 02:47:45;;;;;;;3.67;2.30;;;;;;;16.92;100.00;155665.69;4933310;29;20032;-71
2023/07/29 02:50:10;;;;;;;6.07;2.50;;;;;;;16.93;100.00;155668.34;4926874;29;20119;-72
2023/07/29 02:52:36;;;;;;;5.23;2.33;;;;;;;16.92;100.00;155664.44;4933985;29;20036;-71
2023/07/29 02:55:01;;;;;;;8.07;2.93;;;;;;;16.90;100.00;155660.53;4933251;29;20126;-71
2023/07/29 02:57:26;;;;;;;5.07;3.30;;;;;;;16.89;100.00;155656.59;4929300;29;22111;-71
2023/07/29 02:59:52;;;;;;;2.73;2.27;;;;;;;16.96;100.00;155676.13;4925870;29;20027;-71
2023/07/29 03:02:17;;;;;;;3.80;2.13;;;;;;;16.95;100.00;155673.53;4918468;29;20062;-70
2023/07/29 03:04:43;;;;;;;10.03;2.80;;;;;;;16.94;100.00;155670.94;4929660;29;20046;-70
2023/07/29 03:07:08;;;;;;;3.53;2.57;;;;;;;16.97;100.00;155678.72;4928549;29;20074;-71
2023/07/29 03:09:34;;;;;;;6.87;2.60;;;;;;;17.01;100.00;155689.13;4923332;29;20079;-71
2023/07/29 03:11:59;;;;;;;3.10;2.60;;;;;;;16.97;100.00;155678.72;4914367;29;20548;-71
2023/07/29 03:14:25;;;;;;;6.70;3.40;;;;;;;16.98;100.00;155681.31;4929569;29;20023;-71
2023/07/29 03:16:50;;;;;;;2.93;2.60;;;;;;;16.97;100.00;155677.44;4931187;29;20640;-71
2023/07/29 03:19:16;;;;;;;4.27;3.10;;;;;;;16.95;100.00;155673.53;4926268;29;20032;-71
2023/07/29 03:21:41;;;;;;;12.67;3.23;;;;;;;16.90;100.00;155659.19;4922757;29;20515;-71
2023/07/29 03:24:07;;;;;;;5.17;2.73;;;;;;;16.90;100.00;155660.53;4904991;29;20036;-70
2023/07/29 03:26:33;;;;;;;3.80;2.80;;;;;;;16.90;100.00;155659.19;4902229;29;20032;-71
2023/07/29 03:28:59;;;;;;;5.45;2.78;;;;;;;16.84;100.00;155643.59;4898847;29;20092;-72
2023/07/29 03:31:24;;;;;;;6.03;3.47;;;;;;;16.89;100.00;155657.94;4912574;29;20036;-71
2023/07/29 03:33:50;;;;;;;4.67;2.53;;;;;;;16.91;100.00;155663.09;4907969;29;20036;-70
2023/07/29 03:36:15;;;;;;;6.10;3.00;;;;;;;16.84;100.00;155643.59;4910082;29;20028;-70
2023/07/29 03:38:41;;;;;;;5.97;2.97;;;;;;;16.78;100.00;155629.31;4896013;29;20126;-72
2023/07/29 03:41:10;;;;;;;11.55;2.90;;;;;;;16.77;100.00;155626.72;4873941;29;20037;-71
2023/07/29 03:43:35;;;;;;;5.72;3.22;;;;;;;16.80;100.00;155633.22;4906682;29;20067;-72
2023/07/29 03:46:01;;;;;;;5.23;2.97;;;;;;;16.84;100.00;155644.91;4918610;29;20032;-71
2023/07/29 03:48:26;;;;;;;7.57;3.57;;;;;;;16.84;100.00;155643.59;4918681;29;20043;-71
2023/07/29 03:50:51;;;;;;;9.13;4.03;;;;;;;16.83;100.00;155641.00;4903093;29;20032;-71
2023/07/29 03:53:17;;;;;;;8.47;3.37;;;;;;;16.86;100.00;155650.09;4909888;29;20436;-71
2023/07/29 03:55:43;;;;;;;5.33;3.70;;;;;;;16.82;100.00;155638.41;4883562;29;20119;-70
2023/07/29 03:58:08;;;;;;;9.05;3.33;;;;;;;16.84;100.00;155644.91;4911330;29;20035;-70
2023/07/29 04:00:34;;;;;;;8.33;3.53;;;;;;;16.83;100.00;155642.31;4910777;29;20102;-71
2023/07/29 04:02:59;;;;;;;7.07;3.40;;;;;;;16.80;100.00;155634.50;4909114;29;20073;-70
2023/07/29 04:05:24;;;;;;;8.87;3.90;;;;;;;16.83;100.00;155641.00;4909331;29;20145;-70
2023/07/29 04:07:50;;;;;;;8.97;3.63;;;;;;;16.84;100.00;155644.91;4893486;29;20520;-71
2023/07/29 04:10:15;;;;;;;5.27;3.50;;;;;;;16.91;100.00;155661.84;4910678;29;20028;-70
2023/07/29 04:12:41;;;;;;;8.63;3.70;;;;;;;16.86;100.00;155648.81;4908329;29;20087;-70
2023/07/29 04:15:07;;;;;;;5.80;4.67;;;;;;;16.92;100.00;155665.69;4910411;29;20032;-71
2023/07/29 04:17:32;;;;;;;4.68;3.67;;;;;;;16.89;100.00;155656.59;4910264;29;20060;-71
2023/07/29 04:19:58;;;;;;;13.03;4.70;;;;;;;16.89;100.00;155656.59;4912619;29;20046;-70
2023/07/29 04:22:23;;;;;;;8.67;4.23;;;;;;;16.87;100.00;155651.41;4918180;29;20044;-70
2023/07/29 04:24:48;;;;;;;8.57;4.47;;;;;;;16.94;100.00;155669.63;4896434;29;20076;-72
2023/07/29 04:27:14;;;;;;;7.53;3.93;;;;;;;16.97;100.00;155677.44;4931933;29;20024;-70
2023/07/29 04:29:39;;;;;;;6.30;3.63;;;;;;;17.00;100.00;155685.22;4913423;29;20508;-70
2023/07/29 04:32:05;;;;;;;9.77;5.30;;;;;;;17.02;100.00;155691.72;4937957;29;20031;-71
2023/07/29 04:34:31;;;;;;;6.47;3.92;;;;;;;17.07;100.00;155703.47;4927275;29;20036;-72
2023/07/29 04:36:57;;;;;;;10.60;3.97;;;;;;;17.07;100.00;155704.75;4921794;29;20032;-70
2023/07/29 04:39:22;;;;;;;7.60;4.30;;;;;;;17.14;100.00;155721.69;4924730;29;20437;-70
2023/07/29 04:41:48;;;;;;;11.57;4.70;;;;;;;17.13;100.00;155719.09;4925413;29;20348;-71
2023/07/29 04:44:13;;;;;;;9.63;4.30;;;;;;;17.16;100.00;155726.88;4925501;29;20423;-70
2023/07/29 04:46:39;;;;;;;10.63;4.00;;;;;;;17.13;100.00;155719.09;4932340;29;20140;-72
2023/07/29 04:49:05;;;;;;;12.73;4.83;;;;;;;17.12;100.00;155716.50;4923574;29;20039;-70
2023/07/29 04:51:31;;;;;;;14.20;6.22;;;;;;;17.19;100.00;155734.69;4928393;29;20577;-70
2023/07/29 04:53:57;;;;;;;9.18;4.63;;;;;;;17.22;100.00;155743.78;4927214;29;20046;-70
2023/07/29 04:56:23;;;;;;;13.30;4.57;;;;;;;17.21;100.00;155739.88;4912474;29;20386;-70
2023/07/29 04:58:48;;;;;;;10.67;4.73;;;;;;;17.21;100.00;155739.88;4929665;29;20042;-71
2023/07/29 05:01:14;;;;;;;10.60;4.87;;;;;;;17.23;100.00;155745.13;4936615;29;20024;-71
2023/07/29 05:03:39;;;;;;;10.77;4.90;;;;;;;17.23;100.00;155745.13;4930478;29;20427;-71
2023/07/29 05:06:05;;;;;;;6.83;4.73;;;;;;;17.29;100.00;155760.72;4912532;29;20418;-71
2023/07/29 05:08:30;;;;;;;12.47;5.10;;;;;;;17.30;100.00;155764.59;4931503;29;20035;-72
2023/07/29 05:10:56;;;;;;;14.63;4.87;;;;;;;17.33;100.00;155771.09;4935623;29;20032;-71
2023/07/29 05:13:22;;;;;;;7.93;4.53;;;;;;;17.37;100.00;155782.84;4915240;29;20171;-71
2023/07/29 05:15:48;;;;;;;8.00;4.35;;;;;;;17.40;100.00;155789.41;4919651;29;20031;-70
2023/07/29 05:18:15;;;;;;;8.30;4.30;;;;;;;17.44;100.00;155801.09;4928871;29;20044;-70
2023/07/29 05:20:40;;;;;;;13.35;4.97;;;;;;;17.50;100.00;155815.44;4930301;29;20052;-70
2023/07/29 05:23:06;;;;;;;11.03;4.47;;;;;;;17.53;100.00;155823.22;4920978;29;20165;-71
2023/07/29 05:25:32;;;;;;;7.67;4.77;;;;;;;17.56;100.00;155832.34;4934703;29;20461;-71
2023/07/29 05:27:58;;;;;;;7.53;4.67;;;;;;;17.62;100.00;155847.94;4933018;29;20036;-70
2023/07/29 05:30:23;;;;;;;8.07;4.82;;;;;;;17.67;100.00;155859.69;4914583;29;20407;-72
2023/07/29 05:32:49;;;;;;;7.63;4.17;;;;;;;17.66;100.00;155857.09;4938085;29;20043;-71
2023/07/29 05:35:15;;;;;;;7.80;4.10;;;;;;;17.65;100.00;155854.47;4930362;29;20038;-71
2023/07/29 05:37:41;;;;;;;15.00;5.53;;;;;;;17.73;100.00;155876.63;4921995;29;20455;-70
2023/07/29 05:40:08;;;;;;;5.93;4.20;;;;;;;17.81;100.00;155897.44;4931699;29;20110;-70
2023/07/29 05:42:34;;;;;;;8.77;3.88;;;;;;;17.86;100.00;155909.16;4929330;29;20453;-71
2023/07/29 05:45:00;;;;;;;9.15;4.60;;;;;;;17.91;100.00;155922.16;4935947;29;20396;-70
2023/07/29 05:47:25;;;;;;;7.37;4.13;;;;;;;18.08;100.00;155966.47;4914389;29;20044;-72
2023/07/29 05:49:52;;;;;;;6.83;4.00;;;;;;;18.08;100.00;155966.47;4910922;29;20051;-72
2023/07/29 05:52:17;;;;;;;7.88;4.18;;;;;;;17.97;100.00;155937.78;4901107;29;20051;-71
2023/07/29 05:54:42;;;;;;;9.10;4.63;;;;;;;18.06;100.00;155961.25;4915805;29;20370;-71
2023/07/29 05:57:12;;;;;;;8.50;5.13;;;;;;;18.12;100.00;155978.19;4935310;29;20043;-70
2023/07/29 05:59:38;;;;;;;6.57;4.50;;;;;;;18.23;100.00;156006.81;4938330;29;20035;-70
2023/07/29 06:02:04;;;;;;;9.23;4.53;;;;;;;18.45;100.00;156062.84;4931924;29;20038;-70
2023/07/29 06:04:29;;;;;;;7.50;4.63;;;;;;;19.63;100.00;156370.50;4931218;29;20106;-71
2023/07/29 06:06:55;;;;;;;5.70;4.57;;;;;;;19.67;100.00;156380.91;4931973;29;20050;-71
2023/07/29 06:09:25;;;;;;;9.25;4.35;;;;;;;19.45;100.00;156323.53;4932204;29;20086;-72
2023/07/29 06:11:50;;;;;;;5.90;4.05;;;;;;;19.05;100.00;156219.25;4930807;29;20418;-73
2023/07/29 06:14:16;;;;;;;9.30;3.67;;;;;;;18.98;100.00;156200.97;4930948;29;20111;-70
2023/07/29 06:16:41;;;;;;;7.53;4.70;;;;;;;18.82;100.00;156159.28;4923986;29;20091;-72
2023/07/29 06:19:08;;;;;;;7.17;4.33;;;;;;;18.63;100.00;156109.78;4927963;29;20183;-71
2023/07/29 06:21:35;;;;;;;9.35;4.57;;;;;;;18.53;100.00;156085.06;4928321;29;20040;-70
2023/07/29 06:24:01;;;;;;;8.60;4.65;;;;;;;18.51;100.00;156078.53;4918443;29;20051;-71
2023/07/29 06:26:27;;;;;;;6.40;4.45;;;;;;;18.49;100.00;156073.28;4892148;29;20032;-71
2023/07/29 06:28:52;;;;;;;7.87;4.10;;;;;;;18.51;100.00;156078.53;4908066;29;20055;-71
2023/07/29 06:31:18;;;;;;;9.73;4.40;;;;;;;18.49;100.00;156073.28;4910818;29;20030;-72
2023/07/29 06:33:43;;;;;;;8.23;4.23;;;;;;;18.53;100.00;156083.72;4912802;29;20032;-71
2023/07/29 06:36:09;;;;;;;8.57;4.27;;;;;;;18.63;100.00;156111.06;4910970;29;20040;-71
2023/07/29 06:38:34;;;;;;;11.93;4.20;;;;;;;18.70;100.00;156128.00;4907958;29;20085;-70
2023/07/29 06:41:00;;;;;;;11.27;4.23;;;;;;;18.89;100.00;156177.53;4908904;29;20032;-71
2023/07/29 06:43:25;;;;;;;8.33;4.97;;;;;;;19.10;100.00;156232.28;4898378;29;20032;-72
2023/07/29 06:45:51;;;;;;;10.53;4.43;;;;;;;19.31;100.00;156287.06;4893204;29;20492;-71
2023/07/29 06:48:18;;;;;;;6.97;4.22;;;;;;;19.83;100.00;156422.63;4898919;29;20091;-70
2023/07/29 06:50:44;;;;;;;9.02;4.50;;;;;;;20.56;100.00;156613.13;4905451;29;20039;-70
2023/07/29 06:53:09;;;;;;;6.40;3.90;;;;;;;20.52;100.00;156604.00;4909257;29;20036;-70
2023/07/29 06:55:34;;;;;;;8.00;4.37;;;;;;;21.75;99.47;156923.84;4911541;29;20246;-71
2023/07/29 06:58:00;;;;;;;11.13;3.97;;;;;;;21.61;95.76;156887.28;4909739;29;20035;-71
2023/07/29 07:00:25;;;;;;;5.47;3.43;;;;;;;21.34;95.39;156818.06;4906642;29;20034;-72
2023/07/29 07:02:51;;;;;;;6.27;2.93;;;;;;;21.00;97.12;156729.31;4912835;29;20032;-72
2023/07/29 07:05:16;;;;;;;7.30;3.30;;;;;;;20.62;98.68;156630.09;4904215;29;20485;-71
2023/07/29 07:07:42;;;;;;;5.73;3.03;;;;;;;20.04;100.00;156477.41;4906906;29;20462;-71
2023/07/29 07:10:07;;;;;;;7.07;3.20;;;;;;;20.20;100.00;156519.19;4895060;29;20036;-71
2023/07/29 07:12:33;;;;;;;4.43;2.93;;;;;;;21.13;99.43;156761.97;4912992;29;20036;-70
2023/07/29 07:15:00;;;;;;;5.77;2.87;;;;;;;21.32;95.41;156811.53;4908473;29;20130;-71
2023/07/29 07:17:26;;;;;;;6.20;3.20;;;;;;;21.42;94.53;156837.66;4913289;29;20484;-71
2023/07/29 07:19:51;;;;;;;9.47;3.30;;;;;;;21.03;95.58;156737.13;4895337;29;20056;-71
2023/07/29 07:22:17;;;;;;;4.07;3.30;;;;;;;20.41;97.55;156573.97;4887135;29;20025;-71
2023/07/29 07:24:42;;;;;;;7.33;3.70;;;;;;;20.04;100.00;156478.72;4911247;29;20056;-71
2023/07/29 07:27:08;;;;;;;7.23;4.17;;;;;;;19.79;100.00;156412.22;4908379;29;20072;-71
2023/07/29 07:29:33;;;;;;;8.70;4.27;;;;;;;20.31;100.00;156547.88;4910846;29;20035;-76
2023/07/29 07:31:59;;;;;;;8.90;4.30;;;;;;;20.45;100.00;156584.44;4907636;29;20140;-75
2023/07/29 07:34:24;;;;;;;11.23;4.53;;;;;;;20.37;100.00;156564.84;4911944;29;20031;-76
2023/07/29 07:36:58;;;;;;;7.72;4.03;;;;;;;20.39;100.00;156568.78;5162342;27;20383;-75
2023/07/29 07:39:24;;;;;;;11.67;4.13;;;;;;;20.27;100.00;156537.47;5162036;27;20057;-75
2023/07/29 07:41:49;;;;;;;7.50;3.70;;;;;;;20.23;100.00;156527.03;5142479;27;20026;-74
2023/07/29 07:44:17;;;;;;;7.00;3.87;;;;;;;20.12;100.00;156499.63;5157379;27;20472;-74
2023/07/29 07:46:43;;;;;;;5.80;3.90;;;;;;;20.08;100.00;156487.91;5150148;27;20105;-74
2023/07/29 07:49:08;;;;;;;9.53;4.17;;;;;;;19.92;100.00;156446.13;5156173;27;20077;-75
2023/07/29 07:51:34;;;;;;;8.97;4.40;;;;;;;19.84;100.00;156426.56;5157496;27;20091;-75
2023/07/29 07:53:59;;;;;;;10.07;4.13;;;;;;;19.82;100.00;156420.03;5160304;27;20038;-74
2023/07/29 07:56:24;;;;;;;10.07;4.87;;;;;;;19.85;100.00;156427.88;5156086;27;20027;-74
2023/07/29 07:58:50;;;;;;;3.77;3.37;;;;;;;19.95;100.00;156453.97;5146991;27;20390;-74
2023/07/29 08:01:15;;;;;;;6.27;3.70;;;;;;;19.83;100.00;156423.94;5153175;27;20034;-75
2023/07/29 08:03:40;;;;;;;7.00;3.53;;;;;;;19.79;100.00;156413.50;5137951;27;20027;-76
2023/07/29 08:06:06;;;;;;;6.03;3.73;;;;;;;19.78;100.00;156410.91;5148380;27;20545;-73
2023/07/29 08:08:31;;;;;;;6.53;3.80;;;;;;;19.83;100.00;156422.63;5155086;27;20026;-74
2023/07/29 08:10:57;;;;;;;9.07;3.83;;;;;;;19.87;100.00;156433.06;5156622;27;20018;-75
2023/07/29 08:13:24;;;;;;;5.67;3.60;;;;;;;20.21;100.00;156521.78;5160872;27;20127;-75
2023/07/29 08:15:49;;;;;;;;;;;;;;;20.34;100.00;156555.72;5154694;27;20022;-74
2023/07/29 08:18:16;;;;;;;6.70;3.38;;;;;;;20.51;99.52;156600.06;5154103;27;19919;-76
2023/07/29 08:20:41;;;;;;;6.88;3.47;;;;;;;20.72;98.24;156656.19;5160827;27;20059;-75
2023/07/29 08:23:07;;;;;;;7.63;3.60;;;;;;;21.07;96.59;156746.31;5157731;27;20050;-75
2023/07/29 08:25:32;;;;;;;5.07;3.40;;;;;;;21.10;94.20;156754.09;5150452;27;20022;-74
2023/07/29 08:27:58;;;;;;;5.20;3.10;;;;;;;21.46;93.71;156848.09;5149479;27;20097;-75
2023/07/29 08:30:23;;;;;;;4.70;3.27;;;;;;;21.32;92.99;156811.53;5155405;27;20022;-75
2023/07/29 08:32:49;;;;;;;5.03;2.90;;;;;;;21.14;92.45;156765.81;5138422;27;20128;-74
2023/07/29 08:35:14;;;;;;;5.33;2.80;;;;;;;20.92;93.01;156707.13;5145469;27;20039;-75
2023/07/29 08:37:40;;;;;;;3.53;2.57;;;;;;;20.75;93.23;156662.72;5160036;27;20018;-75
2023/07/29 08:40:06;;;;;;;4.07;2.50;;;;;;;20.71;94.28;156653.56;5155799;27;20422;-74
2023/07/29 08:42:32;;;;;;;7.28;2.80;;;;;;;20.49;94.64;156596.16;5148324;27;20055;-75
2023/07/29 08:45:06;;;;;;;3.40;2.83;;;;;;;20.50;95.19;156597.47;5133023;27;20134;-75
2023/07/29 08:47:31;;;;;;;5.90;2.55;;;;;;;20.54;95.92;156609.19;5143154;27;20066;-75
2023/07/29 08:49:59;;;;;;;3.47;2.50;;;;;;;20.70;96.43;156649.69;5142262;27;20062;-75
2023/07/29 08:52:25;;;;;;;5.82;2.33;;;;;;;20.78;95.09;156671.84;5127547;27;20473;-75
2023/07/29 08:54:52;;;;;;;3.72;2.15;;;;;;;20.89;94.49;156700.59;5124170;27;20031;-74
2023/07/29 08:57:18;;;;;;;;;;;;;;;20.88;94.17;156697.97;5144082;27;20386;-75
2023/07/29 08:59:44;;;;;;;5.10;2.53;;;;;;;20.80;94.89;156675.78;5141910;27;20311;-75
2023/07/29 09:02:10;;;;;;;4.15;2.90;;;;;;;20.78;95.74;156671.84;5144860;27;20029;-76
2023/07/29 09:04:35;;;;;;;4.23;2.40;;;;;;;20.74;95.97;156660.06;5142889;27;20422;-75
2023/07/29 09:07:01;;;;;;;3.07;2.33;;;;;;;20.64;96.18;156635.31;5145582;27;20035;-75
2023/07/29 09:09:27;;;;;;;4.65;2.17;;;;;;;20.59;96.20;156620.97;5143525;27;20023;-75
2023/07/29 09:11:53;;;;;;;7.87;2.53;;;;;;;20.63;96.15;156631.38;5126941;27;20026;-75
2023/07/29 09:14:18;;;;;;;6.47;2.70;;;;;;;20.65;97.48;156636.63;5146628;27;20052;-75
2023/07/29 09:16:44;;;;;;;3.73;2.63;;;;;;;20.45;99.14;156584.44;5146339;27;20030;-75
2023/07/29 09:19:09;;;;;;;5.03;2.80;;;;;;;20.71;100.00;156653.56;5142886;27;20027;-74
2023/07/29 09:21:39;;;;;;;3.47;2.30;;;;;;;20.95;100.00;156716.25;5126791;27;20469;-74
2023/07/29 09:24:05;;;;;;;3.75;2.78;;;;;;;21.13;98.09;156761.97;5143110;27;20092;-75
2023/07/29 09:26:31;;;;;;;7.63;2.85;;;;;;;21.49;96.80;156857.22;5144820;27;20027;-75
2023/07/29 09:28:57;;;;;;;8.10;2.92;;;;;;;21.84;95.15;156948.72;5143044;27;20114;-74
2023/07/29 09:31:25;;;;;;;7.18;2.80;;;;;;;21.85;92.84;156949.97;5128943;27;20039;-74
2023/07/29 09:33:59;;;;;;;3.58;2.83;;;;;;;21.87;92.54;156956.50;5114787;27;20075;-74
2023/07/29 09:36:26;;;;;;;5.35;2.40;;;;;;;21.78;91.21;156931.72;5138754;27;20134;-74
2023/07/29 09:38:56;;;;;;;2.63;2.05;;;;;;;21.62;91.13;156889.88;5125097;27;20026;-74
2023/07/29 09:41:26;;;;;;;4.97;2.13;;;;;;;21.41;91.02;156836.38;5141756;27;20048;-75
2023/07/29 09:44:03;;;;;;;3.72;1.95;;;;;;;21.18;92.69;156776.28;5140417;27;20042;-73
2023/07/29 09:46:34;;;;;;;2.42;1.70;;;;;;;21.13;93.38;156763.22;5124497;27;20015;-74
2023/07/29 09:49:02;;;;;;;3.88;1.90;;;;;;;20.93;93.24;156711.06;5142755;27;20392;-75
2023/07/29 09:51:27;;;;;;;2.25;1.48;;;;;;;21.17;93.54;156773.69;5139587;27;20026;-74
2023/07/29 09:53:53;;;;;;;5.40;1.70;;;;;;;21.11;93.60;156756.69;5137139;27;20034;-74
2023/07/29 09:56:25;;;;;;;1.80;1.70;;;;;;;21.01;93.23;156730.59;5144384;27;20109;-75
2023/07/29 09:58:50;;;;;;;2.75;1.58;;;;;;;21.00;94.48;156728.00;5130136;27;20431;-73
2023/07/29 10:01:17;;;;;;;6.77;2.33;;;;;;;20.98;94.48;156722.78;5130823;27;20031;-74
2023/07/29 10:03:43;;;;;;;;;;;;;;;20.97;95.46;156720.19;5119403;27;20023;-74
2023/07/29 10:06:10;;;;;;;5.78;2.17;;;;;;;20.86;96.58;156691.44;5140643;27;20554;-75
2023/07/29 10:08:38;;;;;;;2.35;1.63;;;;;;;20.82;98.17;156680.97;5137628;27;20035;-74
2023/07/29 10:11:06;;;;;;;4.15;1.77;;;;;;;20.78;99.20;156670.53;5136165;27;20058;-74
2023/07/29 10:13:33;;;;;;;3.67;2.75;;;;;;;20.76;100.00;156665.31;5132897;27;20033;-75
2023/07/29 10:16:02;;;;;;;8.15;1.60;;;;;;;20.65;100.00;156636.63;5137209;27;20031;-75
2023/07/29 10:18:28;;;;;;;3.35;1.58;;;;;;;20.77;100.00;156669.25;5112930;27;20799;-75
2023/07/29 10:20:56;;;;;;;3.90;1.90;;;;;;;20.81;99.79;156679.66;5131146;27;20193;-75
2023/07/29 10:23:22;;;;;;;2.90;1.50;;;;;;;20.64;99.45;156635.31;5139479;27;20564;-75
2023/07/29 10:25:54;;;;;;;2.67;1.60;;;;;;;20.61;100.00;156626.16;5113325;27;20520;-75
2023/07/29 10:28:24;;;;;;;1.92;1.65;;;;;;;20.49;100.00;156596.16;5135842;27;20079;-74
2023/07/29 10:30:50;;;;;;;6.00;1.58;;;;;;;20.47;100.00;156590.94;5111191;27;20398;-75
2023/07/29 10:33:16;;;;;;;2.93;1.70;;;;;;;20.47;100.00;156590.94;5115411;27;20023;-75
2023/07/29 10:35:42;;;;;;;2.47;1.50;;;;;;;20.33;100.00;156553.13;5133133;27;20071;-75
2023/07/29 10:38:08;;;;;;;3.30;1.30;;;;;;;20.10;100.00;156493.09;5136706;27;20071;-75
2023/07/29 10:40:48;;;;;;;3.28;2.25;;;;;;;19.84;100.00;156425.28;5135110;27;20470;-75
2023/07/29 10:43:19;;;;;;;5.88;2.17;;;;;;;19.76;100.00;156405.72;5136260;27;20035;-75
2023/07/29 10:45:44;;;;;;;4.38;1.85;;;;;;;19.65;100.00;156377.03;5133671;27;20031;-75
2023/07/29 10:48:10;;;;;;;12.40;2.27;;;;;;;19.51;100.00;156339.19;5113058;27;20734;-75
2023/07/29 10:50:36;;;;;;;7.80;2.17;;;;;;;19.42;100.00;156315.75;5111074;27;20060;-75
2023/07/29 10:53:01;;;;;;;5.87;1.97;;;;;;;19.34;100.00;156296.19;5135686;27;20031;-74
2023/07/29 10:55:30;;;;;;;12.20;2.50;;;;;;;19.23;100.00;156266.19;5116799;27;20055;-74
2023/07/29 10:58:17;;;;;;;5.15;2.50;;;;;;;19.25;100.00;156271.41;5126036;27;20113;-75
2023/07/29 11:00:45;;;;;;;5.15;2.28;;;;;;;19.28;100.00;156279.22;5125820;27;20023;-74
2023/07/29 11:03:16;;;;;;;3.97;2.53;;;;;;;19.36;100.00;156300.13;5134190;27;20095;-75
2023/07/29 11:05:43;;;;;;;4.57;2.45;;;;;;;19.45;100.00;156324.88;5133926;27;20094;-75
2023/07/29 11:08:22;;;;;;;6.90;2.35;;;;;;;19.50;100.00;156337.91;5138439;27;20052;-75
2023/07/29 11:11:05;;;;;;;5.38;3.22;;;;;;;19.63;100.00;156371.78;5135680;27;20038;-75
2023/07/29 11:13:33;;;;;;;5.50;2.60;;;;;;;19.82;100.00;156420.03;5134336;27;20038;-74
2023/07/29 11:15:59;;;;;;;2.38;2.15;;;;;;;20.25;100.00;156532.22;5131067;27;20031;-75